sensor_id;sensor_type;location;lat;lon;timestamp;P1;durP1;ratioP1;P2;durP2;ratioP2
59062;SDS011;44851;45.648;9.004;2022-10-04T16:42:56;41.37;;;36.97;;
59062;SDS011;44851;45.648;9.004;2022-10-04T16:51:36;41.17;;;36.87;;
59062;SDS011;44851;45.648;9.004;2022-10-04T17:04:41;42.90;;;38.40;;
59062;SDS011;44851;45.648;9.004;2022-10-04T17:09:51;43.03;;;38.60;;
59062;SDS011;44851;45.648;9.004;2022-10-04T17:14:54;45.10;;;40.60;;
59062;SDS011;44851;45.648;9.004;2022-10-04T17:31:10;46.77;;;41.97;;
59062;SDS011;44851;45.648;9.004;2022-10-04T17:34:23;46.13;;;41.27;;
59062;SDS011;44851;45.648;9.004;2022-10-04T17:40:06;46.33;;;41.47;;
59062;SDS011;44851;45.648;9.004;2022-10-04T17:48:21;47.97;;;42.77;;
59062;SDS011;44851;45.648;9.004;2022-10-04T17:54:08;49.73;;;44.50;;
59062;SDS011;44851;45.648;9.004;2022-10-04T17:59:28;48.90;;;43.70;;
59062;SDS011;44851;45.648;9.004;2022-10-04T18:02:07;50.50;;;45.20;;
59062;SDS011;44851;45.648;9.004;2022-10-04T18:04:49;51.50;;;46.20;;
59062;SDS011;44851;45.648;9.004;2022-10-04T18:07:22;51.13;;;45.43;;
59062;SDS011;44851;45.648;9.004;2022-10-04T18:09:51;50.00;;;44.73;;
59062;SDS011;44851;45.648;9.004;2022-10-04T18:14:56;50.77;;;45.43;;
59062;SDS011;44851;45.648;9.004;2022-10-04T18:17:25;49.87;;;44.47;;
59062;SDS011;44851;45.648;9.004;2022-10-04T18:22:48;49.23;;;43.97;;
59062;SDS011;44851;45.648;9.004;2022-10-04T18:25:21;51.07;;;45.53;;
59062;SDS011;44851;45.648;9.004;2022-10-04T18:28:23;50.37;;;45.20;;
59062;SDS011;44851;45.648;9.004;2022-10-04T18:33:14;49.10;;;43.90;;
59062;SDS011;44851;45.648;9.004;2022-10-04T18:35:50;48.97;;;43.87;;
59062;SDS011;44851;45.648;9.004;2022-10-04T18:38:20;50.37;;;44.93;;
59062;SDS011;44851;45.648;9.004;2022-10-04T18:40:54;50.40;;;45.03;;
59062;SDS011;44851;45.648;9.004;2022-10-04T18:46:03;50.33;;;44.87;;
59062;SDS011;44851;45.648;9.004;2022-10-04T18:48:40;49.90;;;44.60;;
59062;SDS011;44851;45.648;9.004;2022-10-04T18:51:25;48.47;;;43.40;;
59062;SDS011;44851;45.648;9.004;2022-10-04T19:02:37;53.03;;;47.30;;
59062;SDS011;44851;45.648;9.004;2022-10-04T19:05:17;55.70;;;48.23;;
59062;SDS011;44851;45.648;9.004;2022-10-04T19:21:07;55.23;;;49.30;;
59062;SDS011;44851;45.648;9.004;2022-10-04T19:26:49;58.97;;;52.80;;
59062;SDS011;44851;45.648;9.004;2022-10-04T19:31:58;54.73;;;49.13;;
59062;SDS011;44851;45.648;9.004;2022-10-04T19:37:13;60.87;;;54.13;;
59062;SDS011;44851;45.648;9.004;2022-10-04T19:39:57;63.20;;;55.07;;
59062;SDS011;44851;45.648;9.004;2022-10-04T19:46:00;68.70;;;58.73;;
59062;SDS011;44851;45.648;9.004;2022-10-04T19:48:30;62.87;;;56.00;;
59062;SDS011;44851;45.648;9.004;2022-10-04T19:51:04;60.60;;;54.23;;
59062;SDS011;44851;45.648;9.004;2022-10-04T19:53:51;63.17;;;56.23;;
59062;SDS011;44851;45.648;9.004;2022-10-04T19:56:25;63.40;;;56.67;;
59062;SDS011;44851;45.648;9.004;2022-10-04T19:59:05;66.17;;;57.87;;
59062;SDS011;44851;45.648;9.004;2022-10-04T20:01:36;66.33;;;58.77;;
59062;SDS011;44851;45.648;9.004;2022-10-04T20:04:13;63.47;;;56.87;;
59062;SDS011;44851;45.648;9.004;2022-10-04T20:06:59;62.70;;;55.87;;
59062;SDS011;44851;45.648;9.004;2022-10-04T20:12:02;65.57;;;58.77;;
59062;SDS011;44851;45.648;9.004;2022-10-04T20:30:03;65.53;;;58.13;;
59062;SDS011;44851;45.648;9.004;2022-10-04T20:35:03;64.47;;;57.53;;
59062;SDS011;44851;45.648;9.004;2022-10-04T20:45:47;63.87;;;57.07;;
59062;SDS011;44851;45.648;9.004;2022-10-04T20:48:19;66.97;;;59.83;;
59062;SDS011;44851;45.648;9.004;2022-10-04T20:50:47;67.20;;;59.87;;
59062;SDS011;44851;45.648;9.004;2022-10-04T20:53:21;64.50;;;57.63;;
59062;SDS011;44851;45.648;9.004;2022-10-04T20:55:49;64.13;;;57.20;;
59062;SDS011;44851;45.648;9.004;2022-10-04T20:58:30;65.27;;;58.10;;
59062;SDS011;44851;45.648;9.004;2022-10-04T21:00:59;62.80;;;56.00;;
59062;SDS011;44851;45.648;9.004;2022-10-04T21:03:41;63.43;;;56.73;;
59062;SDS011;44851;45.648;9.004;2022-10-04T21:06:08;65.10;;;56.90;;
59062;SDS011;44851;45.648;9.004;2022-10-04T21:08:35;64.27;;;57.23;;
59062;SDS011;44851;45.648;9.004;2022-10-04T21:13:39;65.07;;;56.43;;
59062;SDS011;44851;45.648;9.004;2022-10-04T21:16:08;63.17;;;55.27;;
59062;SDS011;44851;45.648;9.004;2022-10-04T21:18:34;62.90;;;56.00;;
59062;SDS011;44851;45.648;9.004;2022-10-04T21:20:59;62.57;;;55.97;;
59062;SDS011;44851;45.648;9.004;2022-10-04T21:23:26;61.27;;;54.30;;
59062;SDS011;44851;45.648;9.004;2022-10-04T21:28:47;67.10;;;59.77;;
59062;SDS011;44851;45.648;9.004;2022-10-04T21:31:17;65.07;;;57.93;;
59062;SDS011;44851;45.648;9.004;2022-10-04T21:33:42;65.07;;;57.57;;
59062;SDS011;44851;45.648;9.004;2022-10-04T21:36:08;66.27;;;55.83;;
59062;SDS011;44851;45.648;9.004;2022-10-04T21:38:34;64.97;;;57.13;;
59062;SDS011;44851;45.648;9.004;2022-10-04T21:40:59;63.43;;;56.77;;
59062;SDS011;44851;45.648;9.004;2022-10-04T21:43:25;64.67;;;57.60;;
59062;SDS011;44851;45.648;9.004;2022-10-04T21:45:51;63.47;;;56.67;;
59062;SDS011;44851;45.648;9.004;2022-10-04T21:48:17;62.97;;;55.60;;
59062;SDS011;44851;45.648;9.004;2022-10-04T21:50:45;65.50;;;57.47;;
59062;SDS011;44851;45.648;9.004;2022-10-04T21:53:11;64.77;;;57.67;;
59062;SDS011;44851;45.648;9.004;2022-10-04T21:55:37;65.73;;;58.57;;
59062;SDS011;44851;45.648;9.004;2022-10-04T21:58:03;63.90;;;56.97;;
59062;SDS011;44851;45.648;9.004;2022-10-04T22:00:28;64.73;;;57.70;;
59062;SDS011;44851;45.648;9.004;2022-10-04T22:02:54;64.37;;;57.37;;
59062;SDS011;44851;45.648;9.004;2022-10-04T22:05:19;64.87;;;55.67;;
59062;SDS011;44851;45.648;9.004;2022-10-04T22:07:44;66.53;;;58.30;;
59062;SDS011;44851;45.648;9.004;2022-10-04T22:10:10;68.87;;;60.43;;
59062;SDS011;44851;45.648;9.004;2022-10-04T22:12:35;71.93;;;63.57;;
59062;SDS011;44851;45.648;9.004;2022-10-04T22:15:01;70.53;;;62.77;;
59062;SDS011;44851;45.648;9.004;2022-10-04T22:17:26;71.20;;;60.33;;
59062;SDS011;44851;45.648;9.004;2022-10-04T22:19:52;72.20;;;63.37;;
59062;SDS011;44851;45.648;9.004;2022-10-04T22:22:17;72.80;;;62.00;;
59062;SDS011;44851;45.648;9.004;2022-10-04T22:24:43;71.97;;;64.07;;
59062;SDS011;44851;45.648;9.004;2022-10-04T22:27:10;71.67;;;61.60;;
59062;SDS011;44851;45.648;9.004;2022-10-04T22:29:38;73.70;;;65.20;;
59062;SDS011;44851;45.648;9.004;2022-10-04T22:32:07;70.37;;;59.53;;
59062;SDS011;44851;45.648;9.004;2022-10-04T22:34:48;69.40;;;59.80;;
59062;SDS011;44851;45.648;9.004;2022-10-04T22:37:15;71.87;;;60.83;;
59062;SDS011;44851;45.648;9.004;2022-10-04T22:39:47;70.03;;;59.10;;
59062;SDS011;44851;45.648;9.004;2022-10-04T22:42:13;71.90;;;61.80;;
59062;SDS011;44851;45.648;9.004;2022-10-04T22:44:39;67.27;;;57.47;;
59062;SDS011;44851;45.648;9.004;2022-10-04T22:47:08;70.87;;;59.77;;
59062;SDS011;44851;45.648;9.004;2022-10-04T22:49:41;69.13;;;58.73;;
59062;SDS011;44851;45.648;9.004;2022-10-04T22:52:18;68.33;;;59.40;;
59062;SDS011;44851;45.648;9.004;2022-10-04T22:54:47;69.97;;;59.73;;
59062;SDS011;44851;45.648;9.004;2022-10-04T22:57:14;70.90;;;61.43;;
59062;SDS011;44851;45.648;9.004;2022-10-04T22:59:42;67.07;;;58.93;;
59062;SDS011;44851;45.648;9.004;2022-10-04T23:02:14;68.10;;;58.03;;
59062;SDS011;44851;45.648;9.004;2022-10-04T23:04:52;69.60;;;60.10;;
59062;SDS011;44851;45.648;9.004;2022-10-04T23:07:19;66.63;;;58.50;;
59062;SDS011;44851;45.648;9.004;2022-10-04T23:09:45;72.37;;;61.37;;
59062;SDS011;44851;45.648;9.004;2022-10-04T23:12:11;69.30;;;60.20;;
59062;SDS011;44851;45.648;9.004;2022-10-04T23:14:38;67.40;;;59.90;;
59062;SDS011;44851;45.648;9.004;2022-10-04T23:17:19;68.97;;;58.73;;
59062;SDS011;44851;45.648;9.004;2022-10-04T23:19:48;69.60;;;59.33;;
59062;SDS011;44851;45.648;9.004;2022-10-04T23:22:17;66.43;;;58.40;;
59062;SDS011;44851;45.648;9.004;2022-10-04T23:24:46;68.13;;;57.77;;
59062;SDS011;44851;45.648;9.004;2022-10-04T23:27:15;66.67;;;59.27;;
59062;SDS011;44851;45.648;9.004;2022-10-04T23:29:42;68.73;;;59.10;;
59062;SDS011;44851;45.648;9.004;2022-10-04T23:32:15;74.20;;;62.00;;
59062;SDS011;44851;45.648;9.004;2022-10-04T23:34:45;68.37;;;60.70;;
59062;SDS011;44851;45.648;9.004;2022-10-04T23:37:19;67.20;;;57.70;;
59062;SDS011;44851;45.648;9.004;2022-10-04T23:39:48;67.57;;;59.47;;
59062;SDS011;44851;45.648;9.004;2022-10-04T23:42:47;70.20;;;60.70;;
59062;SDS011;44851;45.648;9.004;2022-10-04T23:45:10;69.47;;;59.03;;
59062;SDS011;44851;45.648;9.004;2022-10-04T23:47:43;67.97;;;58.40;;
59062;SDS011;44851;45.648;9.004;2022-10-04T23:50:16;66.17;;;58.00;;
59062;SDS011;44851;45.648;9.004;2022-10-04T23:52:42;66.80;;;57.93;;
59062;SDS011;44851;45.648;9.004;2022-10-04T23:55:10;66.40;;;56.53;;
59062;SDS011;44851;45.648;9.004;2022-10-04T23:57:43;69.23;;;57.83;;
